Terminal Aerodrome Forecast
Issued by NWS Jacksonville, FL

Current Version | Previous Version | Text Only | Print | Product List | Glossary On
Versions: 1 2 3 4 5 6 7 8 9 10 11 12 13 14 15 16 17
000
FTUS42 KJAX 251120
TAFJAX
TAF
KJAX 251120Z 2512/2612 12005KT P6SM FEW050 BKN250
     FM251400 13007KT P6SM SCT030 BKN050
     FM251600 12011KT P6SM BKN040
     FM252200 11009KT P6SM SCT040
     FM260000 13004KT P6SM FEW035 BKN250=

USA.gov is the U.S. government's official web portal to all federal, state and local government web resources and services.